Greybull, WY

3:02 AM MDT on August 29, 2015 (GMT -0600)
South Big Horn County | | Change Station
CLOSE
Current Station
Airport
Location: Greybull,
Elevation: 3934 ft
Nearby Weather Stations
Active Advisory: Fire Weather Warning

Elev 3934 ft 44.52 °N, 108.08 °W | Updated 9 minutes ago

Clear
Clear
64 °F
Feels Like 64 °F
N
9
Wind Variable Wind from ESE

Today
High -- | Low -- °F
--% Chance of Precip.
Yesterday
High -- | Low -- °F
Precip. -- in
6:31 AM 7:54 PM
Full, 100% visible
Pressure 29.93 in
Visibility 10.0 miles
Clouds Clear
Dew Point 39 °F
Humidity 40%
Rainfall 0.00 in
Snow Depth Not available.
UV 0 out of 12
Pollen 9.00 out of 12
Air Quality Not available.
Flu Activity Not available.
METAR KGEY 290853Z AUTO 11008KT 10SM CLR 18/04 A3005 RMK AO2 SLP135 T01780039 58002
Pressure 29.93 in
Visibility 10.0 miles
Clouds Clear
Dew Point 39 °F
Humidity 40%
Rainfall 0.00 in
Snow Depth Not available.
UV 0 out of 12
Pollen 9.00 out of 12
Air Quality Not available.
Flu Activity Not available.
METAR KGEY 290853Z AUTO 11008KT 10SM CLR 18/04 A3005 RMK AO2 SLP135 T01780039 58002

10-Day Weather Forecast

×

Almanac

Astronomy

Aug. 29, 2015 Rise Set
Actual Time
Civil Twilight
Nautical Twilight
Astronomical Twilight
Moon
Length of Visible Light
Length of Day
Tomorrow will be .
, % of the Moon is Illuminated

Today's Extremes

State Highs State Lows

Community

WunderPhotos

Upload Photos

1,850,634 photos uploaded!

WunderBlogs® & News

Nearby

Air Quality

  Air Quality AQ Index Pollutant
Not available.

Snow Depth

Station Depth Elevation

Earthquake Activity

City Distance Mag. Time & Date
Minimum magnitude displayed is 2.5.

Coastal Water Temperatures

Place Temperature

Stations

Nearby Weather Stations

Station Location Temp. Windchill Dew Point Humidity Wind Precip. Elev Updated Type
                   
Fire Weather Warning
Statement as of 2:30 AM MDT on August 29, 2015

... Red flag warning remains in effect from 11 am this morning to
9 PM MDT this evening for strong wind... low humidity and a Haines
index of 6...

* wind... southwest 10 to 15 mph with occasional gusts to 25 mph
early afternoon in deeper basins and sheltered areas today... widespread
15 to 25 mph winds with gusts around 35 mph developing after
1500 elsewhere.

* Humidity... 7 to 15 percent.

* Haines index... 6

* impacts... any fires that develop will likely spread rapidly.
Outdoor burning is not recommended.

Precautionary/preparedness actions...

A red flag warning means that critical fire weather conditions
are either occurring now... or will shortly. A combination of
strong winds... low relative humidity... and warm temperatures will
create extreme fire behavior.